Time;durP1;ratioP1;P1;durP2;ratioP2;P2;SDS_P1;SDS_P2;PMS_P1;PMS_P2;Temp;Humidity;BMP_temperature;BMP_pressure;BME280_temperature;BME280_humidity;BME280_pressure;Samples;Min_cycle;Max_cycle;Signal;HPM_P1;HPM_P2
2022/03/04 00:01:59;;;;;;;37.00;15.68;;;2.00;59.60;;;;;;5095987;28;20064;-83
2022/03/04 00:04:26;;;;;;;41.00;17.53;;;2.00;59.40;;;;;;5094180;28;20048;-83
2022/03/04 00:06:53;;;;;;;45.43;17.17;;;2.10;59.20;;;;;;5105653;28;20055;-82
2022/03/04 00:09:20;;;;;;;43.23;16.93;;;2.10;59.10;;;;;;5091793;28;20016;-82
2022/03/04 00:11:47;;;;;;;39.50;17.50;;;2.10;58.90;;;;;;5103940;28;20082;-82
2022/03/04 00:14:13;;;;;;;46.97;18.63;;;2.10;58.80;;;;;;5099970;28;20027;-82
2022/03/04 00:16:38;;;;;;;42.50;16.73;;;2.10;58.70;;;;;;5094326;28;20055;-82
2022/03/04 00:19:07;;;;;;;36.70;15.48;;;2.10;58.60;;;;;;5109490;28;20469;-83
2022/03/04 00:21:37;;;;;;;32.97;13.57;;;2.20;58.50;;;;;;5092755;28;20118;-82
2022/03/04 00:24:03;;;;;;;32.27;13.30;;;2.10;58.40;;;;;;5089982;28;20389;-83
2022/03/04 00:26:29;;;;;;;29.50;13.17;;;2.10;58.30;;;;;;5087710;28;20020;-83
2022/03/04 00:28:55;;;;;;;;;;;2.20;58.30;;;;;;5092803;28;20461;-83
2022/03/04 00:31:21;;;;;;;32.07;12.47;;;2.20;58.30;;;;;;5092767;28;19931;-83
2022/03/04 00:33:47;;;;;;;29.08;12.07;;;2.20;58.00;;;;;;5101965;28;20020;-82
2022/03/04 00:36:12;;;;;;;30.92;12.75;;;2.20;58.00;;;;;;5088146;28;20099;-83
2022/03/04 00:38:38;;;;;;;33.90;13.48;;;2.20;58.10;;;;;;5091420;28;20111;-81
2022/03/04 00:41:03;;;;;;;33.00;13.30;;;2.20;58.10;;;;;;5085634;28;20538;-82
2022/03/04 00:43:29;;;;;;;31.08;13.38;;;2.20;58.10;;;;;;5094329;28;20036;-82
2022/03/04 00:45:54;;;;;;;34.45;13.65;;;2.10;58.00;;;;;;5108506;28;20400;-81
2022/03/04 00:48:21;;;;;;;30.08;13.18;;;2.10;58.10;;;;;;5076247;28;20063;-82
2022/03/04 00:50:46;;;;;;;29.27;12.67;;;2.10;58.10;;;;;;5088551;28;20047;-82
2022/03/04 00:53:12;;;;;;;37.67;14.50;;;2.10;58.10;;;;;;5086635;28;20021;-82
2022/03/04 00:55:38;;;;;;;38.30;15.05;;;2.10;58.10;;;;;;5106263;28;20042;-82
2022/03/04 00:58:05;;;;;;;;;;;2.10;58.20;;;;;;5091385;28;20016;-82
2022/03/04 01:00:30;;;;;;;32.67;13.95;;;2.10;58.20;;;;;;5092382;28;19953;-82
2022/03/04 01:02:59;;;;;;;36.05;14.88;;;2.10;57.90;;;;;;5105623;28;20485;-82
2022/03/04 01:05:25;;;;;;;38.60;16.33;;;2.10;58.10;;;;;;5091172;28;20038;-82
2022/03/04 01:07:50;;;;;;;37.85;15.93;;;2.10;58.10;;;;;;5095809;28;20031;-82
2022/03/04 01:10:16;;;;;;;46.67;17.55;;;2.10;58.20;;;;;;5104300;28;20024;-83
2022/03/04 01:12:42;;;;;;;38.63;15.10;;;2.10;58.20;;;;;;5110131;28;20135;-82
2022/03/04 01:15:08;;;;;;;35.10;14.65;;;2.20;58.20;;;;;;5107352;28;20518;-83
2022/03/04 01:17:34;;;;;;;34.80;15.37;;;2.10;58.20;;;;;;5090818;28;20047;-83
2022/03/04 01:20:00;;;;;;;34.30;15.57;;;2.20;58.10;;;;;;5084258;28;20051;-82
2022/03/04 01:22:25;;;;;;;43.15;15.88;;;2.10;58.10;;;;;;5101525;28;20393;-82
2022/03/04 01:24:53;;;;;;;36.58;15.52;;;2.20;58.10;;;;;;5084683;28;20419;-83
2022/03/04 01:27:19;;;;;;;34.90;16.13;;;2.30;58.10;;;;;;5108340;28;20038;-83
2022/03/04 01:29:45;;;;;;;35.13;15.77;;;2.20;58.10;;;;;;5109701;28;20027;-82
2022/03/04 01:32:10;;;;;;;36.80;15.75;;;2.30;58.10;;;;;;5086643;28;20024;-82
2022/03/04 01:34:39;;;;;;;33.85;14.57;;;2.30;58.10;;;;;;5093710;28;20028;-84
2022/03/04 01:37:06;;;;;;;40.97;16.10;;;2.30;58.10;;;;;;5104378;28;20019;-82
2022/03/04 01:39:32;;;;;;;35.27;15.63;;;2.30;58.10;;;;;;5089768;28;20016;-81
2022/03/04 01:41:57;;;;;;;33.28;14.93;;;2.30;58.10;;;;;;5102816;28;20020;-83
2022/03/04 01:44:23;;;;;;;44.90;16.73;;;2.30;58.10;;;;;;5105459;28;20357;-83
2022/03/04 01:46:48;;;;;;;35.10;15.10;;;2.30;58.10;;;;;;5095083;28;20472;-83
2022/03/04 01:49:14;;;;;;;36.03;15.98;;;2.20;58.10;;;;;;5090502;28;20020;-82
2022/03/04 01:51:40;;;;;;;42.92;16.48;;;2.30;58.00;;;;;;5107920;28;20034;-82
2022/03/04 01:54:05;;;;;;;37.90;15.55;;;2.30;58.00;;;;;;5107258;28;20431;-82
2022/03/04 01:56:31;;;;;;;38.90;16.42;;;2.30;58.00;;;;;;5107314;28;20090;-83
2022/03/04 01:58:57;;;;;;;36.80;16.23;;;2.20;58.10;;;;;;5090476;28;20103;-83
2022/03/04 02:01:23;;;;;;;43.80;17.50;;;2.20;58.10;;;;;;5092583;28;20020;-83
2022/03/04 02:03:49;;;;;;;43.45;16.70;;;2.30;58.10;;;;;;5098141;28;20031;-82
2022/03/04 02:06:15;;;;;;;;;;;2.30;58.20;;;;;;5098963;28;20106;-82
2022/03/04 02:08:41;;;;;;;39.80;15.90;;;2.30;58.10;;;;;;5094816;28;19946;-82
2022/03/04 02:11:07;;;;;;;34.80;15.75;;;2.30;57.80;;;;;;5092056;28;20423;-81
2022/03/04 02:13:32;;;;;;;42.13;15.85;;;2.30;58.00;;;;;;5077087;28;20024;-82
2022/03/04 02:15:58;;;;;;;37.97;15.77;;;2.30;58.10;;;;;;5091332;28;20028;-83
2022/03/04 02:18:24;;;;;;;37.58;15.48;;;2.20;58.20;;;;;;5076236;28;20050;-81
2022/03/04 02:20:52;;;;;;;44.13;15.65;;;2.20;58.30;;;;;;5087538;28;20052;-83
2022/03/04 02:23:18;;;;;;;41.10;15.63;;;2.20;58.40;;;;;;5076864;28;20039;-82
2022/03/04 02:25:47;;;;;;;38.80;17.17;;;2.10;58.40;;;;;;5068381;28;20020;-82
2022/03/04 02:28:13;;;;;;;41.97;17.00;;;2.10;58.60;;;;;;5077458;28;20027;-82
2022/03/04 02:30:38;;;;;;;34.13;15.00;;;2.10;58.60;;;;;;5095040;28;20028;-82
2022/03/04 02:33:06;;;;;;;36.92;15.68;;;2.10;58.70;;;;;;5088390;28;20028;-82
2022/03/04 02:35:33;;;;;;;40.23;16.40;;;2.10;58.80;;;;;;5075293;28;20028;-83
2022/03/04 02:37:58;;;;;;;35.33;14.07;;;2.10;58.80;;;;;;5073591;28;20052;-82
2022/03/04 02:40:25;;;;;;;45.53;17.27;;;2.10;58.90;;;;;;5078041;28;20059;-83
2022/03/04 02:42:50;;;;;;;33.80;13.53;;;2.10;58.90;;;;;;5077936;28;20050;-82
2022/03/04 02:45:16;;;;;;;39.28;16.88;;;2.10;59.00;;;;;;5079442;28;20028;-82
2022/03/04 02:47:42;;;;;;;35.35;15.57;;;2.10;59.10;;;;;;5087284;28;20392;-81
2022/03/04 02:50:08;;;;;;;41.28;18.38;;;2.10;59.10;;;;;;5077326;28;20049;-83
2022/03/04 02:52:34;;;;;;;43.90;18.17;;;2.00;59.10;;;;;;5077042;28;20038;-82
2022/03/04 02:54:59;;;;;;;39.08;17.90;;;2.10;59.20;;;;;;5077339;28;20402;-83
2022/03/04 02:57:25;;;;;;;40.22;17.52;;;2.10;59.20;;;;;;5076787;28;20029;-82
2022/03/04 02:59:51;;;;;;;35.28;15.10;;;2.10;59.30;;;;;;5070597;28;20381;-82
2022/03/04 03:02:16;;;;;;;39.92;15.57;;;2.10;59.20;;;;;;5079136;28;20484;-82
2022/03/04 03:04:42;;;;;;;31.17;13.40;;;2.10;59.20;;;;;;5087729;28;20053;-82
2022/03/04 03:07:08;;;;;;;30.83;12.40;;;2.10;59.20;;;;;;5076817;28;20555;-82
2022/03/04 03:09:34;;;;;;;36.30;13.10;;;2.10;59.30;;;;;;5077202;28;20396;-82
2022/03/04 03:12:00;;;;;;;27.92;13.23;;;2.10;59.30;;;;;;5081489;28;20058;-82
2022/03/04 03:14:25;;;;;;;;;;;2.10;59.30;;;;;;5094596;28;20016;-82
2022/03/04 03:16:51;;;;;;;31.80;12.83;;;2.10;59.30;;;;;;5086868;28;19957;-83
2022/03/04 03:19:16;;;;;;;30.17;13.65;;;2.10;58.90;;;;;;5093385;28;20073;-82
2022/03/04 03:21:42;;;;;;;29.35;12.88;;;2.10;59.10;;;;;;5085844;28;20031;-82
2022/03/04 03:24:07;;;;;;;22.83;11.20;;;2.00;59.20;;;;;;5094055;28;20031;-82
2022/03/04 03:26:34;;;;;;;33.88;13.45;;;2.00;59.30;;;;;;5094930;28;20063;-82
2022/03/04 03:29:00;;;;;;;33.70;13.17;;;2.00;59.30;;;;;;5088832;28;20020;-82
2022/03/04 03:31:26;;;;;;;34.78;13.85;;;2.00;59.50;;;;;;5094499;28;20027;-83
2022/03/04 03:33:51;;;;;;;35.92;15.35;;;2.00;59.50;;;;;;5081079;28;20499;-83
2022/03/04 03:36:17;;;;;;;30.27;14.50;;;2.00;59.50;;;;;;5094421;28;20357;-82
2022/03/04 03:38:42;;;;;;;36.28;15.40;;;1.90;59.70;;;;;;5086958;28;20023;-82
2022/03/04 03:41:08;;;;;;;32.80;14.02;;;1.90;59.60;;;;;;5094169;28;20043;-83
2022/03/04 03:43:33;;;;;;;38.17;12.88;;;2.00;59.60;;;;;;5094072;28;20051;-82
2022/03/04 03:45:59;;;;;;;35.95;12.50;;;1.90;59.60;;;;;;5089248;28;20058;-83
2022/03/04 03:48:25;;;;;;;34.38;14.98;;;1.90;59.60;;;;;;5094385;28;20040;-81
2022/03/04 03:50:50;;;;;;;32.92;14.73;;;1.90;59.60;;;;;;5086935;28;20016;-81
2022/03/04 03:53:16;;;;;;;35.05;14.02;;;1.90;59.70;;;;;;5093216;28;20097;-82
2022/03/04 03:55:42;;;;;;;29.52;13.10;;;1.90;59.80;;;;;;5086165;28;20525;-80
2022/03/04 03:58:07;;;;;;;33.88;13.55;;;1.90;59.70;;;;;;5095010;28;20020;-82
2022/03/04 04:00:34;;;;;;;30.92;13.45;;;1.90;59.80;;;;;;5092797;28;20110;-82
2022/03/04 04:03:00;;;;;;;34.00;13.90;;;1.90;59.70;;;;;;5088932;28;20027;-82
2022/03/04 04:05:26;;;;;;;34.35;14.55;;;2.00;59.70;;;;;;5094744;28;20020;-82
2022/03/04 04:07:52;;;;;;;31.95;14.02;;;2.00;59.80;;;;;;5087986;28;20023;-81
2022/03/04 04:10:17;;;;;;;34.33;13.55;;;2.00;59.70;;;;;;5093060;28;20024;-81
2022/03/04 04:12:43;;;;;;;30.20;12.88;;;2.00;59.80;;;;;;5083616;28;20037;-81
2022/03/04 04:15:08;;;;;;;33.80;13.63;;;2.00;59.70;;;;;;5086759;28;20086;-81
2022/03/04 04:17:34;;;;;;;34.42;12.35;;;2.00;59.80;;;;;;5092766;28;20543;-81
2022/03/04 04:20:00;;;;;;;30.25;13.68;;;2.00;59.70;;;;;;5096378;28;20016;-81
2022/03/04 04:22:25;;;;;;;29.27;12.98;;;2.00;59.80;;;;;;5114905;28;20023;-80
2022/03/04 04:24:51;;;;;;;31.75;13.25;;;2.00;59.80;;;;;;5096212;28;20023;-82
2022/03/04 04:27:17;;;;;;;29.67;13.20;;;2.00;59.90;;;;;;5096359;28;20024;-82
2022/03/04 04:29:42;;;;;;;30.40;12.93;;;2.00;59.90;;;;;;5096071;28;20031;-82
2022/03/04 04:32:09;;;;;;;30.45;13.05;;;2.00;59.90;;;;;;5096115;28;20039;-81
2022/03/04 04:34:35;;;;;;;35.73;13.30;;;2.00;59.90;;;;;;5113501;28;20026;-81
2022/03/04 04:37:00;;;;;;;35.03;13.48;;;2.00;60.00;;;;;;5098327;28;20102;-81
2022/03/04 04:39:26;;;;;;;34.15;14.38;;;2.00;60.10;;;;;;5096764;28;20023;-81
2022/03/04 04:41:51;;;;;;;31.60;13.77;;;2.00;60.20;;;;;;5096349;28;20031;-82
2022/03/04 04:44:17;;;;;;;33.67;13.27;;;2.00;60.10;;;;;;5096497;28;20020;-81
2022/03/04 04:46:43;;;;;;;33.78;14.65;;;2.00;60.20;;;;;;5114757;28;20077;-82
2022/03/04 04:49:09;;;;;;;33.15;14.52;;;2.00;60.20;;;;;;5095894;28;20016;-82
2022/03/04 04:51:35;;;;;;;33.07;14.80;;;2.10;60.20;;;;;;5096638;28;20030;-82
2022/03/04 04:54:01;;;;;;;35.03;14.40;;;2.10;60.20;;;;;;5095546;28;20102;-82
2022/03/04 04:56:26;;;;;;;34.17;14.32;;;2.10;60.30;;;;;;5095592;28;20012;-82
2022/03/04 04:58:52;;;;;;;35.10;14.63;;;2.10;60.20;;;;;;5096451;28;20058;-82
2022/03/04 05:01:17;;;;;;;34.90;14.93;;;2.10;60.30;;;;;;5096674;28;20020;-82
2022/03/04 05:03:43;;;;;;;35.60;14.90;;;2.00;60.50;;;;;;5115247;28;20090;-83
2022/03/04 05:06:10;;;;;;;34.25;15.27;;;2.00;60.50;;;;;;5096932;28;20034;-83
2022/03/04 05:08:35;;;;;;;32.07;14.13;;;2.00;60.60;;;;;;5096706;28;20480;-82
2022/03/04 05:11:01;;;;;;;33.25;14.98;;;2.00;60.60;;;;;;5096721;28;20035;-82
2022/03/04 05:13:27;;;;;;;33.83;15.57;;;2.00;60.60;;;;;;5114311;28;20036;-83
2022/03/04 05:15:52;;;;;;;34.72;14.98;;;2.00;60.60;;;;;;5096326;28;20024;-83
2022/03/04 05:18:18;;;;;;;36.78;15.93;;;2.10;60.70;;;;;;5095550;28;20024;-83
2022/03/04 05:20:44;;;;;;;37.53;15.65;;;2.10;60.60;;;;;;5095686;28;20068;-83
2022/03/04 05:23:10;;;;;;;42.25;16.48;;;2.10;60.70;;;;;;5098985;28;20019;-82
2022/03/04 05:25:35;;;;;;;38.53;15.38;;;2.10;60.70;;;;;;5097510;28;20023;-82
2022/03/04 05:28:01;;;;;;;35.67;14.82;;;2.10;60.70;;;;;;5098465;28;20024;-82
2022/03/04 05:30:27;;;;;;;37.30;15.90;;;2.20;60.80;;;;;;5117977;28;20395;-82
2022/03/04 05:32:52;;;;;;;36.78;15.55;;;2.30;60.80;;;;;;5098848;28;20110;-81
2022/03/04 05:35:18;;;;;;;44.20;17.08;;;2.30;60.80;;;;;;5098899;28;20019;-82
2022/03/04 05:37:44;;;;;;;36.47;15.85;;;2.30;61.00;;;;;;5102267;28;20023;-83
2022/03/04 05:40:10;;;;;;;33.92;15.65;;;2.30;61.10;;;;;;5098910;28;20084;-83
2022/03/04 05:42:36;;;;;;;44.50;16.73;;;2.30;61.20;;;;;;5116661;28;20377;-82
2022/03/04 05:45:03;;;;;;;44.17;17.25;;;2.30;61.40;;;;;;5118193;27;20149;-82
2022/03/04 05:47:29;;;;;;;41.20;16.50;;;2.20;61.60;;;;;;5099612;28;20031;-83
2022/03/04 05:49:54;;;;;;;42.05;17.15;;;2.20;61.80;;;;;;5098268;28;20050;-82
2022/03/04 05:52:20;;;;;;;49.00;18.15;;;2.20;61.90;;;;;;5098222;28;20045;-82
2022/03/04 05:54:46;;;;;;;44.17;18.33;;;2.20;62.00;;;;;;5098350;28;20106;-83
2022/03/04 05:57:11;;;;;;;54.80;21.33;;;2.20;62.10;;;;;;5098831;28;20012;-83
2022/03/04 05:59:37;;;;;;;47.97;19.60;;;2.30;62.20;;;;;;5117166;28;20098;-83
2022/03/04 06:02:03;;;;;;;65.00;23.92;;;2.30;62.40;;;;;;5099964;28;20034;-81
2022/03/04 06:04:28;;;;;;;;;;;2.30;62.50;;;;;;5099739;28;20569;-81
2022/03/04 06:06:54;;;;;;;77.53;27.67;;;2.40;62.50;;;;;;5098683;28;19998;-81
2022/03/04 06:09:21;;;;;;;137.00;42.00;;;2.40;62.10;;;;;;5101191;28;20016;-81
2022/03/04 06:11:46;;;;;;;85.00;31.83;;;2.40;62.30;;;;;;5093564;28;20038;-82
2022/03/04 06:14:12;;;;;;;56.47;21.92;;;2.40;62.60;;;;;;5102201;28;20028;-81
2022/03/04 06:16:38;;;;;;;49.88;20.25;;;2.40;62.70;;;;;;5086526;28;20013;-81
2022/03/04 06:19:03;;;;;;;48.30;19.52;;;2.40;62.80;;;;;;5082730;28;20016;-82
2022/03/04 06:21:29;;;;;;;51.22;20.77;;;2.30;62.90;;;;;;5087737;28;20028;-82
2022/03/04 06:23:54;;;;;;;46.97;20.58;;;2.40;63.00;;;;;;5081703;28;20028;-82
2022/03/04 06:26:21;;;;;;;52.80;21.95;;;2.40;63.20;;;;;;5099237;28;20024;-82
2022/03/04 06:28:47;;;;;;;49.40;19.77;;;2.40;63.20;;;;;;5095685;28;20405;-82
2022/03/04 06:31:15;;;;;;;47.57;19.60;;;2.40;63.30;;;;;;5091599;28;20376;-82
2022/03/04 06:33:42;;;;;;;45.17;18.93;;;2.50;63.40;;;;;;5097842;28;20482;-81
2022/03/04 06:36:11;;;;;;;53.23;20.97;;;2.50;63.30;;;;;;5087795;28;20028;-82
2022/03/04 06:38:41;;;;;;;48.67;19.57;;;2.60;63.40;;;;;;5097710;28;20430;-83
2022/03/04 06:41:06;;;;;;;55.30;21.20;;;2.70;63.50;;;;;;5085867;28;20091;-83
2022/03/04 06:43:32;;;;;;;51.42;19.95;;;2.70;63.50;;;;;;5085978;28;20107;-83
2022/03/04 06:45:58;;;;;;;56.47;22.08;;;2.70;63.50;;;;;;5095924;28;20028;-82
2022/03/04 06:48:25;;;;;;;59.33;20.30;;;2.70;63.50;;;;;;5091030;28;20082;-83
2022/03/04 06:50:51;;;;;;;62.63;21.70;;;2.70;63.60;;;;;;5102677;28;20024;-81
2022/03/04 06:53:17;;;;;;;;;;;2.80;63.60;;;;;;5084493;28;20106;-82
2022/03/04 06:55:43;;;;;;;51.03;20.43;;;2.80;63.60;;;;;;5091147;28;19931;-81
2022/03/04 06:58:08;;;;;;;52.38;21.15;;;2.80;63.30;;;;;;5106667;28;20061;-82
2022/03/04 07:00:34;;;;;;;54.45;21.27;;;2.80;63.40;;;;;;5099846;28;20107;-82
2022/03/04 07:03:00;;;;;;;59.20;22.52;;;2.80;63.50;;;;;;5100707;28;20016;-80
2022/03/04 07:05:26;;;;;;;51.45;21.98;;;2.80;63.60;;;;;;5099687;28;20103;-83
2022/03/04 07:07:52;;;;;;;53.70;22.35;;;2.90;63.60;;;;;;5105771;28;20385;-81
2022/03/04 07:10:18;;;;;;;53.70;22.77;;;3.00;63.60;;;;;;5103895;28;20030;-88
2022/03/04 07:12:45;;;;;;;54.58;22.17;;;3.10;63.60;;;;;;5088042;28;20040;-87
2022/03/04 07:15:11;;;;;;;53.57;23.33;;;3.10;63.60;;;;;;5092990;28;20076;-84
2022/03/04 07:17:37;;;;;;;52.60;23.50;;;3.20;63.60;;;;;;5115936;28;20495;-85
2022/03/04 07:20:04;;;;;;;98.70;38.42;;;3.20;63.70;;;;;;5090918;28;20031;-82
2022/03/04 07:22:30;;;;;;;78.97;32.47;;;3.30;63.70;;;;;;5078340;28;20016;-82
2022/03/04 07:24:55;;;;;;;67.78;27.27;;;3.30;63.60;;;;;;5101210;28;20027;-82
2022/03/04 07:27:21;;;;;;;70.93;28.42;;;3.30;63.70;;;;;;5097663;28;20060;-83
2022/03/04 07:29:46;;;;;;;63.53;25.30;;;3.40;63.60;;;;;;5078226;28;20036;-83
2022/03/04 07:32:12;;;;;;;61.75;26.15;;;3.40;63.60;;;;;;5089114;28;20392;-82
2022/03/04 07:34:38;;;;;;;60.83;22.70;;;3.50;63.60;;;;;;5084843;28;20020;-83
2022/03/04 07:37:05;;;;;;;60.05;23.48;;;3.60;63.60;;;;;;5103004;28;20050;-83
2022/03/04 07:39:30;;;;;;;64.33;26.80;;;3.60;63.60;;;;;;5096953;28;20464;-81
2022/03/04 07:42:01;;;;;;;54.33;23.92;;;3.60;63.60;;;;;;5084030;28;20031;-82
2022/03/04 07:44:27;;;;;;;74.43;28.43;;;3.60;63.60;;;;;;5078928;28;20016;-82
2022/03/04 07:46:53;;;;;;;76.07;28.83;;;3.60;63.60;;;;;;5103554;28;20017;-82
2022/03/04 07:49:18;;;;;;;63.97;27.35;;;3.80;63.60;;;;;;5074864;28;20108;-83
2022/03/04 07:51:44;;;;;;;72.90;29.77;;;3.80;63.50;;;;;;5102010;28;20012;-82
2022/03/04 07:54:10;;;;;;;68.57;27.50;;;3.90;63.40;;;;;;5084621;28;20072;-83
2022/03/04 07:56:35;;;;;;;64.10;25.88;;;3.90;63.30;;;;;;5103244;28;20479;-83
2022/03/04 07:59:01;;;;;;;68.50;26.67;;;3.90;63.30;;;;;;5096663;28;20040;-84
2022/03/04 08:01:27;;;;;;;60.10;25.98;;;4.00;63.30;;;;;;5094006;28;20107;-83
2022/03/04 08:03:52;;;;;;;69.50;29.42;;;4.10;63.20;;;;;;5096672;28;20020;-83
2022/03/04 08:06:18;;;;;;;63.15;25.80;;;4.10;63.10;;;;;;5093629;28;20070;-83
2022/03/04 08:08:43;;;;;;;63.88;25.98;;;4.10;63.10;;;;;;5085154;28;20497;-82
2022/03/04 08:11:09;;;;;;;69.63;26.33;;;4.30;63.10;;;;;;5099895;28;20086;-82
2022/03/04 08:13:36;;;;;;;65.47;27.33;;;4.30;63.10;;;;;;5096801;28;20015;-83
2022/03/04 08:16:03;;;;;;;55.67;24.00;;;4.40;63.00;;;;;;5096166;28;20122;-83
2022/03/04 08:18:29;;;;;;;;;;;4.40;63.00;;;;;;5103850;28;20036;-83
2022/03/04 08:20:55;;;;;;;61.73;24.23;;;4.60;62.90;;;;;;5099410;28;20322;-83
2022/03/04 08:23:20;;;;;;;61.28;24.73;;;4.70;62.50;;;;;;5101083;28;20037;-83
2022/03/04 08:25:46;;;;;;;53.47;23.17;;;4.80;62.50;;;;;;5096254;28;20023;-83
2022/03/04 08:28:12;;;;;;;57.13;24.75;;;4.90;62.40;;;;;;5095515;28;20084;-83
2022/03/04 08:30:38;;;;;;;;;;;4.90;62.40;;;;;;5113862;28;20028;-82
2022/03/04 08:33:04;;;;;;;64.30;23.93;;;5.10;62.30;;;;;;5095947;28;20354;-82
2022/03/04 08:35:38;;;;;;;67.35;24.48;;;5.10;61.90;;;;;;5095769;28;20027;-82
2022/03/04 08:38:04;;;;;;;62.37;22.47;;;5.10;62.00;;;;;;5096148;28;20076;-81
2022/03/04 08:40:29;;;;;;;58.45;24.58;;;5.20;61.90;;;;;;5094819;28;20508;-81
2022/03/04 08:42:55;;;;;;;59.67;24.50;;;5.20;62.00;;;;;;5097140;28;20028;-82
2022/03/04 08:45:24;;;;;;;60.92;24.25;;;5.30;61.90;;;;;;5095675;28;20081;-83
2022/03/04 08:47:49;;;;;;;58.40;24.30;;;5.40;61.70;;;;;;5101286;28;20026;-81
2022/03/04 08:50:16;;;;;;;57.08;24.20;;;5.60;61.60;;;;;;5095572;28;20019;-83
2022/03/04 08:52:42;;;;;;;60.17;24.53;;;5.70;61.50;;;;;;5096087;28;20027;-82
2022/03/04 08:55:14;;;;;;;55.97;22.70;;;5.90;61.30;;;;;;5095242;28;20026;-82
2022/03/04 08:57:40;;;;;;;55.57;23.10;;;6.10;61.00;;;;;;5098097;28;20027;-82
2022/03/04 09:00:07;;;;;;;47.60;19.53;;;6.30;60.70;;;;;;5099439;28;20045;-82
2022/03/04 09:02:35;;;;;;;46.10;19.43;;;6.50;60.20;;;;;;5100879;28;20134;-83
2022/03/04 09:05:07;;;;;;;47.10;20.63;;;6.60;59.80;;;;;;5097621;28;20548;-82
2022/03/04 09:07:33;;;;;;;49.93;21.43;;;6.70;59.70;;;;;;5114034;28;20110;-81
2022/03/04 09:09:59;;;;;;;41.53;16.60;;;6.70;59.70;;;;;;5100368;28;20452;-81
2022/03/04 09:12:25;;;;;;;45.58;18.13;;;6.70;59.40;;;;;;5093233;28;20081;-81
2022/03/04 09:14:50;;;;;;;;;;;6.60;59.20;;;;;;5085851;28;20168;-81
2022/03/04 09:17:16;;;;;;;40.93;18.10;;;6.50;59.30;;;;;;5076449;28;19916;-82
2022/03/04 09:19:41;;;;;;;45.53;19.67;;;6.50;59.10;;;;;;5102316;28;20035;-83
2022/03/04 09:22:07;;;;;;;;;;;6.40;59.20;;;;;;5100390;28;20023;-81
2022/03/04 09:24:32;;;;;;;43.90;17.77;;;6.40;59.10;;;;;;5091039;28;19912;-82
2022/03/04 09:26:58;;;;;;;41.67;17.55;;;6.40;58.80;;;;;;5090638;28;20392;-81
2022/03/04 09:29:23;;;;;;;42.00;17.48;;;6.30;58.80;;;;;;5095454;28;20049;-81
2022/03/04 09:31:49;;;;;;;;;;;6.30;58.90;;;;;;5110928;28;20019;-82
2022/03/04 09:34:14;;;;;;;47.33;18.27;;;6.30;59.00;;;;;;5082701;28;19992;-82
2022/03/04 09:36:40;;;;;;;44.80;18.48;;;6.30;58.70;;;;;;5089479;28;20029;-81
2022/03/04 09:39:05;;;;;;;38.70;17.00;;;6.30;58.80;;;;;;5086233;28;20073;-82
2022/03/04 09:41:31;;;;;;;41.05;16.27;;;6.20;58.80;;;;;;5083240;28;20576;-82
2022/03/04 09:43:57;;;;;;;39.67;16.95;;;6.20;58.80;;;;;;5095778;28;20100;-81
2022/03/04 09:46:23;;;;;;;34.13;15.25;;;6.10;58.80;;;;;;5084956;28;20031;-81
2022/03/04 09:48:49;;;;;;;;;;;6.10;58.90;;;;;;5110031;28;20511;-82
2022/03/04 09:51:15;;;;;;;39.90;16.37;;;6.00;58.90;;;;;;5084066;28;19967;-82
2022/03/04 09:53:41;;;;;;;39.75;15.73;;;6.10;58.50;;;;;;5100217;28;20080;-83
2022/03/04 09:56:07;;;;;;;42.45;17.15;;;6.20;58.50;;;;;;5107530;28;20392;-81
2022/03/04 09:58:32;;;;;;;39.70;15.93;;;6.40;58.40;;;;;;5102013;28;20076;-82
2022/03/04 10:01:01;;;;;;;39.20;15.65;;;6.40;58.10;;;;;;5085581;28;20050;-82
2022/03/04 10:03:30;;;;;;;38.57;16.50;;;6.40;58.00;;;;;;5102918;28;20027;-81
2022/03/04 10:05:57;;;;;;;39.60;16.67;;;6.40;57.90;;;;;;5082544;28;20036;-82
2022/03/04 10:08:23;;;;;;;34.67;14.47;;;6.50;57.90;;;;;;5084098;28;20020;-82
2022/03/04 10:10:53;;;;;;;;;;;6.60;57.80;;;;;;5095239;28;20045;-82
2022/03/04 10:13:44;;;;;;;38.40;15.13;;;6.70;57.70;;;;;;5093884;28;19959;-82
2022/03/04 10:16:21;;;;;;;46.17;18.50;;;6.90;57.10;;;;;;5091493;28;20089;-82
2022/03/04 10:19:02;;;;;;;48.80;21.27;;;7.10;56.90;;;;;;5094643;28;20071;-82
2022/03/04 10:21:47;;;;;;;42.80;21.10;;;7.20;56.80;;;;;;5089156;28;20024;-82
2022/03/04 10:24:14;;;;;;;42.97;18.73;;;7.30;56.80;;;;;;5090283;28;20020;-83
2022/03/04 10:26:39;;;;;;;51.77;22.00;;;7.60;56.50;;;;;;5086387;28;20028;-82
2022/03/04 10:29:18;;;;;;;43.97;19.05;;;7.80;56.30;;;;;;5094308;28;20437;-82
2022/03/04 10:32:05;;;;;;;41.50;18.97;;;7.90;55.60;;;;;;5094157;28;20488;-81
2022/03/04 10:34:51;;;;;;;42.37;17.53;;;7.90;55.40;;;;;;5093749;28;20477;-82
2022/03/04 10:37:23;;;;;;;40.73;17.43;;;7.90;55.30;;;;;;5090649;28;20032;-82
2022/03/04 10:40:10;;;;;;;39.33;17.77;;;8.00;55.30;;;;;;5088970;28;20067;-82
2022/03/04 10:42:39;;;;;;;49.67;20.53;;;7.90;55.40;;;;;;5085519;28;20069;-82
2022/03/04 10:45:07;;;;;;;43.97;20.13;;;7.90;55.30;;;;;;5089119;28;20084;-83
2022/03/04 10:48:09;;;;;;;42.63;18.90;;;7.90;55.20;;;;;;5093744;28;20098;-82
2022/03/04 10:50:49;;;;;;;44.90;19.53;;;8.10;54.50;;;;;;5093367;28;20380;-83
2022/03/04 10:53:22;;;;;;;38.00;17.83;;;8.40;54.20;;;;;;5090437;28;20031;-82
2022/03/04 10:56:07;;;;;;;34.87;16.80;;;8.80;53.80;;;;;;5087340;28;20027;-82
2022/03/04 10:58:35;;;;;;;36.43;16.00;;;9.30;53.00;;;;;;5092727;28;20030;-81
2022/03/04 11:01:16;;;;;;;31.33;15.37;;;9.60;52.20;;;;;;5089031;28;20073;-81
2022/03/04 11:03:42;;;;;;;27.73;14.57;;;9.90;51.50;;;;;;5093194;28;20035;-81
2022/03/04 11:06:12;;;;;;;30.67;15.23;;;10.00;51.20;;;;;;5093391;28;20028;-81
2022/03/04 11:08:39;;;;;;;23.10;11.50;;;10.10;51.00;;;;;;5092858;28;20423;-82
2022/03/04 11:11:07;;;;;;;20.53;10.03;;;10.10;50.50;;;;;;5095767;28;20027;-81
2022/03/04 11:13:34;;;;;;;25.77;9.38;;;10.00;50.00;;;;;;5096396;28;20020;-82
2022/03/04 11:16:01;;;;;;;16.27;8.48;;;9.90;49.80;;;;;;5115998;27;20042;-81
2022/03/04 11:18:27;;;;;;;21.00;9.27;;;9.80;49.50;;;;;;5096663;28;20020;-82
2022/03/04 11:20:53;;;;;;;;;;;9.80;49.30;;;;;;5098457;28;20015;-81
2022/03/04 11:23:36;;;;;;;19.08;8.98;;;9.80;49.40;;;;;;5096209;28;19919;-81
2022/03/04 11:26:04;;;;;;;21.38;9.45;;;9.70;48.80;;;;;;5088502;28;20034;-82
2022/03/04 11:28:37;;;;;;;19.58;9.55;;;9.50;48.70;;;;;;5095102;28;20506;-82
2022/03/04 11:31:06;;;;;;;21.73;9.90;;;9.50;48.20;;;;;;5108603;28;20064;-81
2022/03/04 11:33:35;;;;;;;21.10;9.73;;;9.40;48.50;;;;;;5089364;28;20393;-81
2022/03/04 11:36:22;;;;;;;17.08;9.32;;;9.40;48.40;;;;;;5088502;28;20020;-81
2022/03/04 11:38:50;;;;;;;20.50;9.48;;;9.50;48.10;;;;;;5093050;28;20056;-82
2022/03/04 11:41:19;;;;;;;19.05;9.48;;;9.80;48.00;;;;;;5105310;28;20027;-81
2022/03/04 11:43:50;;;;;;;18.85;9.95;;;10.00;47.40;;;;;;5114040;28;20038;-81
2022/03/04 11:46:21;;;;;;;21.45;10.25;;;10.20;46.60;;;;;;5092065;28;20027;-82
2022/03/04 11:48:48;;;;;;;19.10;8.82;;;10.20;46.10;;;;;;5092410;28;20077;-82
2022/03/04 11:51:17;;;;;;;18.25;8.70;;;10.20;46.10;;;;;;5092738;28;20028;-82
2022/03/04 11:53:43;;;;;;;20.00;9.43;;;10.10;46.00;;;;;;5114320;28;20063;-82
2022/03/04 11:56:25;;;;;;;;;;;9.90;45.90;;;;;;5107617;28;20207;-82
2022/03/04 11:58:56;;;;;;;19.77;9.02;;;9.90;46.30;;;;;;5086313;28;19915;-81
2022/03/04 12:01:27;;;;;;;16.10;8.05;;;10.00;46.00;;;;;;5084523;28;20153;-81
2022/03/04 12:04:16;;;;;;;16.65;8.68;;;10.00;45.90;;;;;;5101999;28;20110;-81
2022/03/04 12:06:43;;;;;;;17.85;8.05;;;9.90;45.60;;;;;;5092641;28;20524;-81
2022/03/04 12:09:29;;;;;;;18.23;8.35;;;9.90;45.50;;;;;;5109499;28;20476;-81
2022/03/04 12:12:24;;;;;;;15.83;7.40;;;9.80;45.70;;;;;;5083115;28;20040;-82
2022/03/04 12:14:53;;;;;;;18.48;7.53;;;9.70;45.70;;;;;;5068856;28;20114;-82
2022/03/04 12:17:19;;;;;;;19.45;8.90;;;9.60;45.90;;;;;;5075104;28;20024;-81
2022/03/04 12:19:45;;;;;;;19.02;8.10;;;9.50;46.10;;;;;;5075576;28;20095;-81
2022/03/04 12:22:12;;;;;;;;;;;9.40;46.10;;;;;;5075500;28;20016;-83
2022/03/04 12:24:38;;;;;;;17.63;8.40;;;9.30;46.30;;;;;;5075149;28;20003;-81
2022/03/04 12:27:04;;;;;;;14.67;7.63;;;9.20;46.20;;;;;;5075266;28;20031;-81
2022/03/04 12:30:13;;;;;;;17.35;7.75;;;9.10;46.50;;;;;;5091794;28;20031;-81
2022/03/04 12:36:03;;;;;;;15.87;7.63;;;8.90;46.40;;;;;;5092327;28;20039;-81
2022/03/04 12:38:47;;;;;;;17.83;7.60;;;8.80;46.60;;;;;;5074723;28;20119;-81
2022/03/04 12:41:16;;;;;;;14.93;7.90;;;8.80;46.70;;;;;;5070075;28;20027;-82
2022/03/04 12:43:47;;;;;;;18.67;7.90;;;8.70;46.80;;;;;;5073707;28;20029;-81
2022/03/04 12:46:15;;;;;;;17.00;8.17;;;8.50;46.70;;;;;;5092801;28;20538;-82
2022/03/04 12:48:41;;;;;;;19.57;7.87;;;8.30;46.90;;;;;;5074358;28;20034;-81